createdAt,value
2018-02-21T00:02:06.566Z,95276
2018-02-21T00:04:35.406Z,95259
2018-02-21T00:07:03.843Z,95265
2018-02-21T00:09:32.027Z,95271
2018-02-21T00:12:00.103Z,95276
2018-02-21T00:14:28.274Z,95280
2018-02-21T00:16:56.462Z,95282
2018-02-21T00:19:24.626Z,95263
2018-02-21T00:21:52.810Z,95270
2018-02-21T00:24:20.893Z,95273
2018-02-21T00:26:49.063Z,95276
2018-02-21T00:29:17.130Z,95265
2018-02-21T00:31:45.218Z,95278
2018-02-21T00:34:13.282Z,95275
2018-02-21T00:36:41.353Z,95283
2018-02-21T00:39:09.461Z,95269
2018-02-21T00:41:37.629Z,95279
2018-02-21T00:44:05.687Z,95270
2018-02-21T00:46:34.321Z,95267
2018-02-21T00:49:04.274Z,95256
2018-02-21T00:51:32.374Z,95269
2018-02-21T00:54:00.526Z,95276
2018-02-21T00:56:28.643Z,95277
2018-02-21T00:58:56.813Z,95278
2018-02-21T01:01:24.890Z,95280
2018-02-21T01:03:52.958Z,95276
2018-02-21T01:06:21.024Z,95275
2018-02-21T01:08:49.105Z,95281
2018-02-21T01:11:17.182Z,95277
2018-02-21T01:13:45.281Z,95273
2018-02-21T01:16:13.355Z,95273
2018-02-21T01:18:41.510Z,95271
2018-02-21T01:21:09.706Z,95273
2018-02-21T01:23:37.794Z,95277
2018-02-21T01:26:05.870Z,95285
2018-02-21T01:28:35.550Z,95278
2018-02-21T01:31:04.779Z,95285
2018-02-21T01:33:32.845Z,95278
2018-02-21T01:36:00.930Z,95281
2018-02-21T01:38:29.518Z,95276
2018-02-21T01:40:57.698Z,95274
2018-02-21T01:43:26.587Z,95279
2018-02-21T01:45:54.659Z,95280
2018-02-21T01:48:22.850Z,95278
2018-02-21T01:50:52.735Z,95293
2018-02-21T01:53:20.814Z,95290
2018-02-21T01:55:48.882Z,95280
2018-02-21T01:58:17.661Z,95302
2018-02-21T02:00:45.741Z,95292
2018-02-21T02:03:13.866Z,95277
2018-02-21T02:05:41.953Z,95282
2018-02-21T02:08:10.038Z,95294
2018-02-21T02:10:38.203Z,95288
2018-02-21T02:13:06.286Z,95294
2018-02-21T02:15:35.484Z,95293
2018-02-21T02:18:03.650Z,95289
2018-02-21T02:20:31.722Z,95297
2018-02-21T02:22:59.813Z,95293
2018-02-21T02:25:27.981Z,95298
2018-02-21T02:27:56.162Z,95297
2018-02-21T02:30:24.226Z,95300
2018-02-21T02:32:53.210Z,95301
2018-02-21T02:35:21.273Z,95305
2018-02-21T02:37:49.350Z,95293
2018-02-21T02:40:17.474Z,95294
2018-02-21T02:42:46.626Z,95298
2018-02-21T02:45:14.739Z,95307
2018-02-21T02:47:42.825Z,95305
2018-02-21T02:50:10.892Z,95305
2018-02-21T02:52:39.070Z,95322
2018-02-21T02:55:07.248Z,95272
2018-02-21T02:57:36.639Z,95313
2018-02-21T03:00:06.604Z,95307
2018-02-21T03:02:35.884Z,95316
2018-02-21T03:05:03.962Z,95321
2018-02-21T03:07:32.038Z,95321
2018-02-21T03:10:00.119Z,95305
2018-02-21T03:12:28.290Z,95301
2018-02-21T03:14:56.366Z,95284
2018-02-21T03:17:24.549Z,95316
2018-02-21T03:19:52.620Z,95308
2018-02-21T03:22:20.798Z,95304
2018-02-21T03:24:48.982Z,95305
2018-02-21T03:27:17.053Z,95297
2018-02-21T03:29:45.135Z,95303
2018-02-21T03:32:13.205Z,95312
2018-02-21T03:34:41.379Z,95309
2018-02-21T03:37:09.461Z,95305
2018-02-21T03:39:37.546Z,95308
2018-02-21T03:42:07.116Z,95303
2018-02-21T03:44:36.914Z,95314
2018-02-21T03:47:04.984Z,95306
2018-02-21T03:49:34.393Z,95305
2018-02-21T03:52:02.526Z,95315
2018-02-21T03:54:30.603Z,95304
2018-02-21T03:56:58.848Z,95307
2018-02-21T03:59:26.922Z,95318
2018-02-21T04:01:55.034Z,95316
2018-02-21T04:04:23.113Z,95314
2018-02-21T04:06:52.327Z,95318
2018-02-21T04:09:20.391Z,95321
2018-02-21T04:11:48.565Z,95319
2018-02-21T04:14:17.586Z,95324
2018-02-21T04:16:45.645Z,95323
2018-02-21T04:19:13.735Z,95337
2018-02-21T04:21:41.890Z,95323
2018-02-21T04:24:10.072Z,95316
2018-02-21T04:26:38.354Z,95330
2018-02-21T04:29:06.869Z,95325
2018-02-21T04:31:37.593Z,95336
2018-02-21T04:34:06.796Z,95340
2018-02-21T04:36:34.957Z,95338
2018-02-21T04:39:03.781Z,95335
2018-02-21T04:41:32.626Z,95337
2018-02-21T04:44:00.690Z,95351
2018-02-21T04:46:28.750Z,95350
2018-02-21T04:48:56.831Z,95350
2018-02-21T04:51:24.889Z,95358
2018-02-21T04:53:53.738Z,95345
2018-02-21T04:59:35.521Z,95353
2018-02-21T05:02:04.394Z,95335
2018-02-21T05:04:32.513Z,95350
2018-02-21T05:07:00.572Z,95349
2018-02-21T05:09:28.684Z,95348
2018-02-21T05:11:58.280Z,95361
2018-02-21T05:14:26.360Z,95349
2018-02-21T05:16:54.422Z,95361
2018-02-21T05:19:22.522Z,95357
2018-02-21T05:21:50.590Z,95353
2018-02-21T05:24:18.666Z,95352
2018-02-21T05:26:46.758Z,95347
2018-02-21T05:29:15.626Z,95359
2018-02-21T05:31:43.698Z,95363
2018-02-21T05:34:11.795Z,95368
2018-02-21T05:36:39.858Z,95368
2018-02-21T05:39:07.926Z,95369
2018-02-21T05:41:35.986Z,95361
2018-02-21T05:44:04.078Z,95368
2018-02-21T05:46:32.166Z,95360
2018-02-21T05:49:00.240Z,95377
2018-02-21T05:51:28.314Z,95380
2018-02-21T05:53:56.382Z,95377
2018-02-21T05:56:24.449Z,95382
2018-02-21T05:58:52.530Z,95383
2018-02-21T06:01:20.589Z,95387
2018-02-21T06:03:48.662Z,95397
2018-02-21T06:06:16.735Z,95393
2018-02-21T06:08:44.810Z,95386
2018-02-21T06:11:12.993Z,95390
2018-02-21T06:13:41.067Z,95384
2018-02-21T06:16:09.130Z,95391
2018-02-21T06:18:38.678Z,95386
2018-02-21T06:21:07.869Z,95392
2018-02-21T06:23:35.942Z,95385
2018-02-21T06:26:04.051Z,95391
2018-02-21T06:28:32.119Z,95404
2018-02-21T06:31:00.196Z,95406
2018-02-21T06:33:28.774Z,95386
2018-02-21T06:35:56.851Z,95388
2018-02-21T06:38:24.910Z,95378
2018-02-21T06:40:52.998Z,95379
2018-02-21T06:43:21.077Z,95398
2018-02-21T06:45:49.158Z,95389
2018-02-21T06:48:17.262Z,95382
2018-02-21T06:50:45.688Z,95407
2018-02-21T06:53:13.742Z,95396
2018-02-21T06:55:42.598Z,95386
2018-02-21T06:58:10.692Z,95394
2018-02-21T07:00:38.746Z,95390
2018-02-21T07:03:06.821Z,95407
2018-02-21T07:05:34.906Z,95387
2018-02-21T07:08:02.970Z,95404
2018-02-21T07:10:31.072Z,95399
2018-02-21T07:12:59.230Z,95401
2018-02-21T07:15:27.393Z,95411
2018-02-21T07:17:55.486Z,95399
2018-02-21T07:20:23.567Z,95396
2018-02-21T07:22:53.243Z,95403
2018-02-21T07:25:21.317Z,95410
2018-02-21T07:27:49.434Z,95408
2018-02-21T07:30:17.609Z,95407
2018-02-21T07:32:45.679Z,95404
2018-02-21T07:35:13.890Z,95413
2018-02-21T07:37:41.951Z,95416
2018-02-21T07:40:10.027Z,95403
2018-02-21T07:42:40.051Z,95418
2018-02-21T07:45:09.568Z,95417
2018-02-21T07:47:38.753Z,95408
2018-02-21T07:50:06.919Z,95415
2018-02-21T07:52:34.978Z,95423
2018-02-21T07:55:03.060Z,95408
2018-02-21T07:57:31.117Z,95416
2018-02-21T07:59:59.195Z,95428
2018-02-21T08:02:27.277Z,95417
2018-02-21T08:04:55.334Z,95424
2018-02-21T08:07:23.397Z,95411
2018-02-21T08:09:52.654Z,95427
2018-02-21T08:12:20.710Z,95423
2018-02-21T08:14:48.782Z,95427
2018-02-21T08:17:16.851Z,95433
2018-02-21T08:19:44.934Z,95419
2018-02-21T08:22:13.038Z,95424
2018-02-21T08:24:41.110Z,95431
2018-02-21T08:27:09.194Z,95423
2018-02-21T08:29:37.270Z,95429
2018-02-21T08:32:05.358Z,95428
2018-02-21T08:34:33.435Z,95434
2018-02-21T08:37:01.599Z,95439
2018-02-21T08:39:29.682Z,95438
2018-02-21T08:41:57.747Z,95438
2018-02-21T08:44:25.825Z,95429
2018-02-21T08:46:53.901Z,95440
2018-02-21T08:49:21.961Z,95453
2018-02-21T08:51:50.027Z,95442
2018-02-21T08:54:18.100Z,95436
2018-02-21T08:56:46.169Z,95447
2018-02-21T08:59:14.221Z,95447
2018-02-21T09:01:43.066Z,95440
2018-02-21T09:04:11.150Z,95445
2018-02-21T09:06:40.341Z,95448
2018-02-21T09:09:09.534Z,95462
2018-02-21T09:11:37.635Z,95449
2018-02-21T09:14:05.693Z,95443
2018-02-21T09:16:33.858Z,95447
2018-02-21T09:19:01.855Z,95453
2018-02-21T09:21:29.931Z,95437
2018-02-21T09:23:57.994Z,95444
2018-02-21T09:26:26.066Z,95439
2018-02-21T09:28:54.128Z,95432
2018-02-21T09:31:22.190Z,95421
2018-02-21T09:33:51.045Z,95439
2018-02-21T09:36:19.121Z,95424
2018-02-21T09:38:47.183Z,95418
2018-02-21T09:41:15.853Z,95423
2018-02-21T09:43:43.958Z,95409
2018-02-21T09:46:12.025Z,95409
2018-02-21T09:48:40.107Z,95415
2018-02-21T09:51:08.294Z,95412
2018-02-21T09:53:36.370Z,95401
2018-02-21T09:56:04.438Z,95420
2018-02-21T09:58:32.513Z,95407
2018-02-21T10:01:00.636Z,95402
2018-02-21T10:03:28.638Z,95409
2018-02-21T10:05:56.704Z,95416
2018-02-21T10:08:24.826Z,95402
2018-02-21T10:10:52.910Z,95400
2018-02-21T10:13:20.992Z,95410
2018-02-21T10:15:49.158Z,95405
2018-02-21T10:18:17.229Z,95405
2018-02-21T10:20:45.310Z,95415
2018-02-21T10:23:13.491Z,95409
2018-02-21T10:25:41.646Z,95411
2018-02-21T10:28:10.356Z,95399
2018-02-21T10:30:38.601Z,95415
2018-02-21T10:33:06.653Z,95410
2018-02-21T10:35:35.474Z,95418
2018-02-21T10:38:03.545Z,95404
2018-02-21T10:40:31.994Z,95403
2018-02-21T10:43:00.138Z,95410
2018-02-21T10:45:28.209Z,95393
2018-02-21T10:47:56.282Z,95394
2018-02-21T10:50:24.715Z,95394
2018-02-21T10:52:53.565Z,95387
2018-02-21T10:55:22.370Z,95389
2018-02-21T10:57:50.557Z,95397
2018-02-21T11:00:24.138Z,95399
2018-02-21T11:02:52.345Z,95402
2018-02-21T11:05:20.404Z,95382
2018-02-21T11:07:48.582Z,95396
2018-02-21T11:10:16.645Z,95393
2018-02-21T11:12:44.715Z,95394
2018-02-21T11:15:13.609Z,95400
2018-02-21T11:17:41.686Z,95387
2018-02-21T11:20:11.642Z,95379
2018-02-21T11:22:40.929Z,95377
2018-02-21T11:25:09.211Z,95384
2018-02-21T11:27:37.283Z,95371
2018-02-21T11:30:05.335Z,95368
2018-02-21T11:32:33.442Z,95380
2018-02-21T11:35:01.500Z,95361
2018-02-21T11:37:29.554Z,95370
2018-02-21T11:39:57.669Z,95369
2018-02-21T11:42:25.726Z,95366
2018-02-21T11:44:53.822Z,95367
2018-02-21T11:47:21.897Z,95354
2018-02-21T11:49:49.962Z,95361
2018-02-21T11:52:18.014Z,95356
2018-02-21T11:54:46.075Z,95360
2018-02-21T11:57:14.898Z,95348
2018-02-21T11:59:42.994Z,95339
2018-02-21T12:02:11.285Z,95337
2018-02-21T12:04:39.368Z,95346
2018-02-21T12:07:07.411Z,95345
2018-02-21T12:09:35.490Z,95350
2018-02-21T12:12:03.571Z,95350
2018-02-21T12:14:31.634Z,95351
2018-02-21T12:16:59.696Z,95356
2018-02-21T12:19:27.810Z,95347
2018-02-21T12:21:55.892Z,95348
2018-02-21T12:24:23.950Z,95351
2018-02-21T12:26:52.150Z,95347
2018-02-21T12:29:20.242Z,95345
2018-02-21T12:31:49.087Z,95353
2018-02-21T12:34:17.170Z,95349
2018-02-21T12:36:45.235Z,95340
2018-02-21T12:39:18.850Z,95346
2018-02-21T12:41:46.914Z,95361
2018-02-21T12:44:14.973Z,95341
2018-02-21T12:46:43.095Z,95350
2018-02-21T12:49:12.577Z,95346
2018-02-21T12:51:41.757Z,95343
2018-02-21T12:54:11.706Z,95343
2018-02-21T12:56:39.800Z,95347
2018-02-21T12:59:07.862Z,95342
2018-02-21T13:01:35.957Z,95344
2018-02-21T13:04:04.030Z,95328
2018-02-21T13:06:32.098Z,95335
2018-02-21T13:09:00.155Z,95340
2018-02-21T13:11:28.230Z,95334
2018-02-21T13:13:56.301Z,95328
2018-02-21T13:16:24.789Z,95331
2018-02-21T13:18:52.899Z,95332
2018-02-21T13:21:21.033Z,95340
2018-02-21T13:23:49.050Z,95335
2018-02-21T13:26:17.114Z,95338
2018-02-21T13:28:45.928Z,95335
2018-02-21T13:31:14.249Z,95341
2018-02-21T13:33:42.395Z,95338
2018-02-21T13:36:10.470Z,95354
2018-02-21T13:38:38.649Z,95341
2018-02-21T13:41:06.702Z,95353
2018-02-21T13:43:34.790Z,95342
2018-02-21T13:46:02.858Z,95351
2018-02-21T13:48:30.934Z,95344
2018-02-21T13:50:59.014Z,95350
2018-02-21T13:53:27.092Z,95343
2018-02-21T13:55:55.166Z,95339
2018-02-21T13:58:23.238Z,95339
2018-02-21T14:00:52.167Z,95348
2018-02-21T14:03:20.243Z,95332
2018-02-21T14:05:48.313Z,95340
2018-02-21T14:08:16.382Z,95333
2018-02-21T14:10:44.563Z,95331
2018-02-21T14:13:13.938Z,95333
2018-02-21T14:15:42.867Z,95321
2018-02-21T14:18:10.925Z,95325
2018-02-21T14:20:39.016Z,95323
2018-02-21T14:23:07.083Z,95326
2018-02-21T14:25:35.277Z,95329
2018-02-21T14:28:03.336Z,95328
2018-02-21T14:30:31.410Z,95321
2018-02-21T14:32:59.485Z,95325
2018-02-21T14:35:27.554Z,95318
2018-02-21T14:37:55.639Z,95319
2018-02-21T14:40:23.712Z,95314
2018-02-21T14:42:53.037Z,95318
2018-02-21T14:45:21.114Z,95320
2018-02-21T14:47:49.238Z,95307
2018-02-21T14:50:17.317Z,95315
2018-02-21T14:52:45.378Z,95315
2018-02-21T14:55:13.506Z,95322
2018-02-21T14:57:41.577Z,95316
2018-02-21T15:00:09.658Z,95321
2018-02-21T15:02:37.727Z,95318
2018-02-21T15:05:05.814Z,95311
2018-02-21T15:07:33.897Z,95292
2018-02-21T15:10:02.066Z,95321
2018-02-21T15:12:30.177Z,95326
2018-02-21T15:14:58.995Z,95326
2018-02-21T15:17:27.075Z,95322
2018-02-21T15:19:55.142Z,95313
2018-02-21T15:22:23.974Z,95324
2018-02-21T15:24:53.035Z,95314
2018-02-21T15:27:21.104Z,95313
2018-02-21T15:29:49.171Z,95323
2018-02-21T15:32:18.640Z,95319
2018-02-21T15:34:46.719Z,95328
2018-02-21T15:37:14.782Z,95324
2018-02-21T15:39:44.571Z,95333
2018-02-21T15:42:13.775Z,95324
2018-02-21T15:44:41.850Z,95333
2018-02-21T15:47:09.966Z,95335
2018-02-21T15:49:37.977Z,95330
2018-02-21T15:52:06.826Z,95335
2018-02-21T15:54:34.918Z,95336
2018-02-21T15:57:02.998Z,95339
2018-02-21T15:59:32.386Z,95340
2018-02-21T16:02:00.826Z,95334
2018-02-21T16:04:28.882Z,95340
2018-02-21T16:06:56.946Z,95328
2018-02-21T16:09:25.010Z,95335
2018-02-21T16:11:53.186Z,95351
2018-02-21T16:14:21.251Z,95332
2018-02-21T16:16:49.345Z,95340
2018-02-21T16:19:17.515Z,95329
2018-02-21T16:21:45.894Z,95340
2018-02-21T16:24:15.071Z,95325
2018-02-21T16:26:44.268Z,95331
2018-02-21T16:29:12.369Z,95328
2018-02-21T16:31:40.457Z,95345
2018-02-21T16:34:08.531Z,95339
2018-02-21T16:36:36.600Z,95342
2018-02-21T16:39:04.678Z,95349
2018-02-21T16:41:32.761Z,95351
2018-02-21T16:44:00.821Z,95337
2018-02-21T16:46:28.911Z,95353
2018-02-21T16:48:56.970Z,95353
2018-02-21T16:51:25.026Z,95349
2018-02-21T16:53:58.598Z,95344
2018-02-21T16:56:27.442Z,95349
2018-02-21T16:58:55.531Z,95360
2018-02-21T17:01:23.718Z,95353
2018-02-21T17:03:52.311Z,95349
2018-02-21T17:06:20.382Z,95361
2018-02-21T17:08:48.442Z,95355
2018-02-21T17:11:16.630Z,95349
2018-02-21T17:13:45.599Z,95364
2018-02-21T17:16:14.791Z,95364
2018-02-21T17:18:42.866Z,95366
2018-02-21T17:21:10.936Z,95372
2018-02-21T17:23:39.002Z,95357
2018-02-21T17:26:07.840Z,95367
2018-02-21T17:28:35.909Z,95349
2018-02-21T17:31:03.970Z,95348
2018-02-21T17:33:32.077Z,95348
2018-02-21T17:36:00.158Z,95346
2018-02-21T17:38:28.226Z,95363
2018-02-21T17:41:01.738Z,95361
2018-02-21T17:43:29.916Z,95363
2018-02-21T17:45:57.984Z,95370
2018-02-21T17:48:26.044Z,95367
2018-02-21T17:50:54.108Z,95377
2018-02-21T17:53:22.186Z,95371
2018-02-21T17:55:50.290Z,95379
2018-02-21T17:58:18.366Z,95374
2018-02-21T18:00:46.453Z,95362
2018-02-21T18:03:16.251Z,95369
2018-02-21T18:05:45.422Z,95369
2018-02-21T18:08:13.549Z,95366
2018-02-21T18:10:41.730Z,95376
2018-02-21T18:13:09.953Z,95378
2018-02-21T18:15:38.798Z,95366
2018-02-21T18:18:06.996Z,95363
2018-02-21T18:20:35.862Z,95368
2018-02-21T18:23:04.089Z,95383
2018-02-21T18:25:32.137Z,95364
2018-02-21T18:28:00.230Z,95362
2018-02-21T18:30:29.227Z,95372
2018-02-21T18:32:58.089Z,95358
2018-02-21T18:35:26.270Z,95360
2018-02-21T18:37:54.349Z,95359
2018-02-21T18:40:22.437Z,95361
2018-02-21T18:42:50.504Z,95368
2018-02-21T18:45:18.649Z,95361
2018-02-21T18:47:46.806Z,95363
2018-02-21T18:50:17.694Z,95363
2018-02-21T18:52:46.778Z,95368
2018-02-21T18:55:16.787Z,95361
2018-02-21T18:57:46.852Z,95373
2018-02-21T19:00:16.040Z,95368
2018-02-21T19:02:44.114Z,95355
2018-02-21T19:05:12.194Z,95362
2018-02-21T19:07:40.351Z,95369
2018-02-21T19:10:08.554Z,95372
2018-02-21T19:12:36.621Z,95356
2018-02-21T19:15:04.686Z,95361
2018-02-21T19:17:32.929Z,95367
2018-02-21T19:20:01.752Z,95369
2018-02-21T19:22:29.849Z,95374
2018-02-21T19:24:58.399Z,95334
2018-02-21T19:27:26.609Z,95360
2018-02-21T19:29:54.820Z,95370
2018-02-21T19:32:22.973Z,95367
2018-02-21T19:34:52.296Z,95373
2018-02-21T19:37:21.176Z,95363
2018-02-21T19:39:49.290Z,95369
2018-02-21T19:42:18.130Z,95363
2018-02-21T19:44:47.546Z,95350
2018-02-21T19:47:16.833Z,95360
2018-02-21T19:49:45.032Z,95363
2018-02-21T19:52:13.152Z,95364
2018-02-21T19:54:42.059Z,95368
2018-02-21T19:57:10.233Z,95353
2018-02-21T19:59:38.330Z,95373
2018-02-21T20:02:06.434Z,95363
2018-02-21T20:04:34.518Z,95360
2018-02-21T20:07:02.605Z,95365
2018-02-21T20:09:30.666Z,95366
2018-02-21T20:11:58.946Z,95377
2018-02-21T20:14:27.030Z,95359
2018-02-21T20:16:55.129Z,95384
2018-02-21T20:19:23.982Z,95367
2018-02-21T20:21:53.160Z,95379
2018-02-21T20:24:21.293Z,95378
2018-02-21T20:26:49.374Z,95377
2018-02-21T20:29:17.470Z,95379
2018-02-21T20:31:47.433Z,95374
2018-02-21T20:34:15.626Z,95381
2018-02-21T20:36:43.761Z,95375
2018-02-21T20:39:11.830Z,95369
2018-02-21T20:41:39.894Z,95378
2018-02-21T20:44:08.745Z,95370
2018-02-21T20:46:36.926Z,95353
2018-02-21T20:49:05.014Z,95369
2018-02-21T20:51:33.118Z,95349
2018-02-21T20:54:01.978Z,95361
2018-02-21T20:56:30.059Z,95355
2018-02-21T20:58:58.232Z,95361
2018-02-21T21:01:26.407Z,95358
2018-02-21T21:03:55.239Z,95360
2018-02-21T21:06:24.073Z,95355
2018-02-21T21:08:52.357Z,95353
2018-02-21T21:11:20.444Z,95366
2018-02-21T21:13:48.510Z,95365
2018-02-21T21:16:16.590Z,95358
2018-02-21T21:18:44.686Z,95355
2018-02-21T21:21:12.782Z,95356
2018-02-21T21:23:40.861Z,95371
2018-02-21T21:26:08.983Z,95355
2018-02-21T21:28:37.070Z,95353
2018-02-21T21:31:05.172Z,95355
2018-02-21T21:33:33.346Z,95351
2018-02-21T21:36:01.508Z,95348
2018-02-21T21:38:29.601Z,95349
2018-02-21T21:40:57.738Z,95335
2018-02-21T21:43:25.832Z,95332
2018-02-21T21:45:54.030Z,95337
2018-02-21T21:48:22.101Z,95337
2018-02-21T21:50:50.289Z,95321
2018-02-21T21:53:19.493Z,95320
2018-02-21T21:55:48.699Z,95322
2018-02-21T21:58:16.940Z,95316
2018-02-21T22:00:46.040Z,95314
2018-02-21T22:03:14.158Z,95306
2018-02-21T22:05:42.238Z,95308
2018-02-21T22:08:10.454Z,95321
2018-02-21T22:10:39.410Z,95308
2018-02-21T22:13:07.574Z,95308
2018-02-21T22:15:35.760Z,95308
2018-02-21T22:18:03.950Z,95300
2018-02-21T22:20:32.194Z,95303
2018-02-21T22:23:00.254Z,95308
2018-02-21T22:25:29.093Z,95314
2018-02-21T22:27:57.357Z,95318
2018-02-21T22:30:25.421Z,95312
2018-02-21T22:32:53.500Z,95294
2018-02-21T22:35:21.677Z,95292
2018-02-21T22:37:49.742Z,95300
2018-02-21T22:40:18.998Z,95310
2018-02-21T22:42:47.069Z,95297
2018-02-21T22:45:15.151Z,95317
2018-02-21T22:47:43.314Z,95310
2018-02-21T22:50:11.482Z,95299
2018-02-21T22:52:40.989Z,95303
2018-02-21T22:55:09.071Z,95301
2018-02-21T22:57:37.142Z,95302
2018-02-21T23:00:05.225Z,95302
2018-02-21T23:02:34.218Z,95294
2018-02-21T23:05:02.406Z,95302
2018-02-21T23:07:30.550Z,95297
2018-02-21T23:09:58.626Z,95294
2018-02-21T23:12:26.758Z,95304
2018-02-21T23:14:54.849Z,95298
2018-02-21T23:17:23.875Z,95313
2018-02-21T23:19:51.970Z,95293
2018-02-21T23:22:20.387Z,95312
2018-02-21T23:24:48.565Z,95298
2018-02-21T23:27:16.744Z,95281
2018-02-21T23:29:44.936Z,95297
2018-02-21T23:32:13.005Z,95292
2018-02-21T23:34:41.089Z,95300
2018-02-21T23:37:09.939Z,95289
2018-02-21T23:39:38.052Z,95293
2018-02-21T23:42:07.651Z,95289
2018-02-21T23:44:35.730Z,95287
2018-02-21T23:47:03.805Z,95295
2018-02-21T23:49:32.074Z,95274
2018-02-21T23:52:00.139Z,95284
2018-02-21T23:54:28.223Z,95287
2018-02-21T23:56:56.310Z,95282
2018-02-21T23:59:24.468Z,95286
